Watford, Canada
Current Conditions -  °F | °C
As of 9:00 AM on Friday 31 Oct 2014 (Local Time) from CYZR Reporting Station
Light Rain Light Rain  
Wind Chill: 43°   Ceiling: 5500
Heat Index: 43°   Visibility: 9mi
Dew Point: 39°   Wind: 3mph
Humidity: 87%   Direction: 190°S
Pressure: 29.89"   Gusts: NA
Location:  42.95°N, 81.88°W
Report Text: CYZR 311300Z AUTO 19003KT 9SM -RA SCT041 OVC055 06/04 A2989 RMK SLP127
Loading
Personal Weather Stations






























Interactive Weather Map New forecast layout! Learn more

10-Day Weather Forecast

Advertisements
Track Severe Weather on mobile